createdAt,value
2017-04-13T00:00:54.429Z,13.20
2017-04-13T00:01:54.020Z,13.20
2017-04-13T00:02:53.052Z,13.20
2017-04-13T00:03:52.016Z,13.20
2017-04-13T00:04:51.453Z,13.20
2017-04-13T00:05:50.440Z,13.10
2017-04-13T00:06:49.778Z,13.10
2017-04-13T00:07:48.789Z,13.10
2017-04-13T00:08:47.818Z,13.10
2017-04-13T00:09:46.754Z,13.10
2017-04-13T00:10:45.804Z,13.10
2017-04-13T00:11:44.810Z,13.10
2017-04-13T00:12:43.325Z,13.10
2017-04-13T00:13:42.442Z,13.00
2017-04-13T00:14:41.440Z,13.00
2017-04-13T00:15:40.058Z,13.00
2017-04-13T00:16:39.108Z,13.00
2017-04-13T00:17:38.092Z,13.00
2017-04-13T00:18:37.083Z,12.90
2017-04-13T00:19:36.160Z,12.90
2017-04-13T00:20:35.140Z,12.90
2017-04-13T00:21:34.079Z,12.90
2017-04-13T00:22:33.108Z,12.90
2017-04-13T00:23:32.148Z,13.00
2017-04-13T00:24:32.118Z,13.00
2017-04-13T00:25:31.849Z,13.00
2017-04-13T00:26:31.001Z,12.90
2017-04-13T00:27:29.939Z,13.00
2017-04-13T00:28:29.007Z,13.00
2017-04-13T00:29:28.008Z,13.00
2017-04-13T00:30:27.048Z,13.00
2017-04-13T00:31:26.009Z,13.00
2017-04-13T00:32:24.976Z,13.00
2017-04-13T00:33:24.002Z,13.00
2017-04-13T00:34:23.073Z,12.90
2017-04-13T00:35:22.076Z,12.90
2017-04-13T00:36:21.256Z,12.90
2017-04-13T00:37:20.291Z,12.90
2017-04-13T00:38:19.219Z,12.90
2017-04-13T00:39:18.296Z,12.90
2017-04-13T00:40:17.776Z,12.90
2017-04-13T00:41:16.771Z,13.00
2017-04-13T00:42:15.755Z,13.00
2017-04-13T00:43:14.688Z,13.00
2017-04-13T00:44:13.736Z,13.00
2017-04-13T00:45:12.677Z,13.00
2017-04-13T00:46:11.716Z,13.00
2017-04-13T00:47:10.752Z,13.00
2017-04-13T00:48:09.773Z,13.00
2017-04-13T00:49:08.714Z,13.00
2017-04-13T00:50:07.663Z,13.00
2017-04-13T00:51:06.695Z,13.00
2017-04-13T00:52:05.720Z,13.10
2017-04-13T00:53:04.649Z,13.10
2017-04-13T00:54:03.641Z,13.10
2017-04-13T00:55:02.635Z,13.10
2017-04-13T00:56:01.627Z,13.10
2017-04-13T00:57:02.116Z,13.10
2017-04-13T00:58:02.095Z,13.10
2017-04-13T00:59:01.096Z,13.10
2017-04-13T01:00:00.067Z,13.10
2017-04-13T01:00:58.651Z,13.20
2017-04-13T01:01:58.044Z,13.10
2017-04-13T01:02:57.409Z,13.10
2017-04-13T01:03:56.413Z,13.10
2017-04-13T01:04:55.487Z,13.10
2017-04-13T01:05:54.851Z,13.10
2017-04-13T01:06:54.073Z,13.10
2017-04-13T01:07:53.092Z,13.10
2017-04-13T01:08:52.111Z,13.10
2017-04-13T01:09:51.111Z,13.10
2017-04-13T01:10:50.100Z,13.10
2017-04-13T01:11:49.066Z,13.10
2017-04-13T01:12:48.116Z,13.10
2017-04-13T01:13:47.147Z,13.10
2017-04-13T01:14:46.244Z,13.10
2017-04-13T01:15:45.649Z,13.10
2017-04-13T01:16:44.592Z,13.10
2017-04-13T01:17:43.622Z,13.20
2017-04-13T01:18:42.687Z,13.20
2017-04-13T01:19:41.707Z,13.20
2017-04-13T01:20:40.695Z,13.20
2017-04-13T01:21:39.723Z,13.20
2017-04-13T01:22:38.747Z,13.10
2017-04-13T01:23:37.821Z,13.20
2017-04-13T01:24:36.848Z,13.20
2017-04-13T01:25:35.871Z,13.20
2017-04-13T01:26:34.938Z,13.20
2017-04-13T01:27:33.945Z,13.20
2017-04-13T01:28:32.975Z,13.20
2017-04-13T01:29:31.984Z,13.20
2017-04-13T01:30:31.047Z,13.20
2017-04-13T01:31:29.978Z,13.20
2017-04-13T01:32:28.999Z,13.20
2017-04-13T01:33:28.089Z,13.20
2017-04-13T01:34:27.099Z,13.20
2017-04-13T01:35:26.088Z,13.20
2017-04-13T01:36:25.084Z,13.20
2017-04-13T01:37:24.057Z,13.20
2017-04-13T01:38:23.060Z,13.20
2017-04-13T01:39:22.216Z,13.20
2017-04-13T01:40:21.214Z,13.20
2017-04-13T01:41:20.159Z,13.20
2017-04-13T01:42:19.151Z,13.20
2017-04-13T01:43:18.131Z,13.20
2017-04-13T01:44:17.059Z,13.20
2017-04-13T01:45:16.018Z,13.20
2017-04-13T01:46:15.404Z,13.20
2017-04-13T01:47:14.368Z,13.20
2017-04-13T01:48:12.967Z,13.20
2017-04-13T01:49:11.908Z,13.20
2017-04-13T01:50:10.932Z,13.20
2017-04-13T01:51:09.935Z,13.20
2017-04-13T01:52:08.577Z,13.20
2017-04-13T01:53:07.532Z,13.20
2017-04-13T01:54:06.482Z,13.20
2017-04-13T01:55:05.645Z,13.20
2017-04-13T01:56:04.586Z,13.20
2017-04-13T01:57:03.738Z,13.20
2017-04-13T01:58:02.702Z,13.20
2017-04-13T01:59:01.717Z,13.20
2017-04-13T02:00:00.721Z,13.20
2017-04-13T02:00:59.710Z,13.20
2017-04-13T02:01:58.702Z,13.20
2017-04-13T02:02:57.826Z,13.20
2017-04-13T02:03:56.952Z,13.20
2017-04-13T02:04:55.938Z,13.20
2017-04-13T02:05:54.979Z,13.20
2017-04-13T02:06:53.968Z,13.20
2017-04-13T02:07:53.152Z,13.30
2017-04-13T02:08:52.113Z,13.20
2017-04-13T02:09:51.173Z,13.30
2017-04-13T02:10:50.171Z,13.30
2017-04-13T02:11:49.503Z,13.30
2017-04-13T02:12:48.430Z,13.30
2017-04-13T02:13:47.451Z,13.30
2017-04-13T02:14:46.526Z,13.30
2017-04-13T02:15:45.504Z,13.30
2017-04-13T02:16:44.488Z,13.20
2017-04-13T02:17:43.082Z,13.30
2017-04-13T02:18:42.125Z,13.30
2017-04-13T02:19:40.679Z,13.30
2017-04-13T02:20:39.759Z,13.30
2017-04-13T02:21:38.788Z,13.30
2017-04-13T02:22:37.780Z,13.30
2017-04-13T02:23:37.494Z,13.30
2017-04-13T02:24:36.887Z,13.30
2017-04-13T02:25:35.875Z,13.30
2017-04-13T02:26:34.952Z,13.30
2017-04-13T02:27:33.942Z,13.30
2017-04-13T02:28:32.944Z,13.30
2017-04-13T02:29:31.975Z,13.30
2017-04-13T02:30:31.027Z,13.30
2017-04-13T02:31:30.012Z,13.30
2017-04-13T02:32:29.012Z,13.30
2017-04-13T02:33:28.013Z,13.20
2017-04-13T02:34:27.007Z,13.30
2017-04-13T02:35:25.540Z,13.30
2017-04-13T02:36:24.535Z,13.30
2017-04-13T02:37:23.537Z,13.30
2017-04-13T02:38:22.548Z,13.30
2017-04-13T02:39:21.511Z,13.30
2017-04-13T02:40:20.528Z,13.30
2017-04-13T02:41:19.511Z,13.30
2017-04-13T02:42:18.492Z,13.20
2017-04-13T02:43:17.520Z,13.20
2017-04-13T02:44:16.895Z,13.20
2017-04-13T02:45:15.879Z,13.20
2017-04-13T02:46:14.878Z,13.20
2017-04-13T02:47:13.827Z,13.20
2017-04-13T02:48:12.416Z,13.20
2017-04-13T02:49:11.491Z,13.20
2017-04-13T02:50:10.539Z,13.20
2017-04-13T02:51:09.538Z,13.20
2017-04-13T02:52:08.587Z,13.20
2017-04-13T02:53:07.547Z,13.20
2017-04-13T02:54:06.871Z,13.20
2017-04-13T02:55:05.856Z,13.20
2017-04-13T02:56:04.872Z,13.20
2017-04-13T02:57:04.264Z,13.20
2017-04-13T02:58:03.263Z,13.20
2017-04-13T02:59:02.255Z,13.20
2017-04-13T03:00:01.251Z,13.20
2017-04-13T03:01:00.375Z,13.20
2017-04-13T03:01:59.445Z,13.20
2017-04-13T03:02:58.439Z,13.20
2017-04-13T03:03:57.503Z,13.20
2017-04-13T03:04:56.547Z,13.20
2017-04-13T03:05:55.630Z,13.20
2017-04-13T03:06:54.672Z,13.20
2017-04-13T03:07:53.670Z,13.10
2017-04-13T03:08:52.711Z,13.20
2017-04-13T03:09:51.717Z,13.20
2017-04-13T03:10:50.684Z,13.10
2017-04-13T03:11:49.630Z,13.10
2017-04-13T03:12:48.577Z,13.10
2017-04-13T03:13:47.649Z,13.10
2017-04-13T03:14:46.588Z,13.10
2017-04-13T03:15:45.583Z,13.10
2017-04-13T03:16:44.632Z,13.10
2017-04-13T03:17:43.596Z,13.20
2017-04-13T03:18:42.554Z,13.20
2017-04-13T03:19:41.669Z,13.20
2017-04-13T03:20:40.636Z,13.20
2017-04-13T03:21:39.676Z,13.20
2017-04-13T03:22:38.315Z,13.20
2017-04-13T03:23:37.361Z,13.20
2017-04-13T03:24:36.376Z,13.20
2017-04-13T03:25:35.384Z,13.10
2017-04-13T03:26:34.377Z,13.10
2017-04-13T03:27:33.366Z,13.10
2017-04-13T03:28:32.368Z,13.10
2017-04-13T03:29:31.381Z,13.10
2017-04-13T03:30:30.370Z,13.10
2017-04-13T03:31:29.399Z,13.10
2017-04-13T03:32:28.373Z,13.10
2017-04-13T03:33:27.401Z,13.10
2017-04-13T03:34:26.427Z,13.10
2017-04-13T03:35:25.376Z,13.10
2017-04-13T03:36:24.419Z,13.10
2017-04-13T03:37:23.453Z,13.10
2017-04-13T03:38:22.904Z,13.00
2017-04-13T03:39:21.927Z,13.10
2017-04-13T03:40:20.891Z,13.00
2017-04-13T03:41:19.891Z,13.00
2017-04-13T03:42:18.927Z,13.00
2017-04-13T03:43:17.975Z,13.00
2017-04-13T03:44:16.961Z,13.00
2017-04-13T03:45:15.971Z,13.00
2017-04-13T03:46:14.984Z,12.90
2017-04-13T03:47:13.940Z,13.00
2017-04-13T03:48:12.911Z,12.90
2017-04-13T03:49:11.920Z,12.90
2017-04-13T03:50:10.988Z,12.90
2017-04-13T03:51:10.001Z,12.90
2017-04-13T03:52:08.978Z,12.90
2017-04-13T03:53:07.960Z,12.90
2017-04-13T03:54:06.975Z,12.90
2017-04-13T03:55:05.973Z,12.90
2017-04-13T03:56:04.973Z,12.90
2017-04-13T03:57:03.584Z,12.90
2017-04-13T03:58:02.612Z,12.80
2017-04-13T03:59:01.219Z,12.90
2017-04-13T04:00:00.198Z,12.80
2017-04-13T04:00:59.966Z,12.80
2017-04-13T04:01:58.979Z,12.70
2017-04-13T04:02:57.930Z,12.70
2017-04-13T04:03:56.938Z,12.70
2017-04-13T04:04:55.875Z,12.70
2017-04-13T04:05:54.915Z,12.70
2017-04-13T04:06:54.047Z,12.60
2017-04-13T04:07:53.061Z,12.60
2017-04-13T04:08:52.128Z,12.60
2017-04-13T04:09:51.123Z,12.60
2017-04-13T04:10:50.464Z,12.50
2017-04-13T04:11:49.488Z,12.50
2017-04-13T04:12:48.905Z,12.50
2017-04-13T04:13:47.904Z,12.50
2017-04-13T04:14:46.918Z,12.50
2017-04-13T04:15:45.920Z,12.40
2017-04-13T04:16:45.983Z,12.40
2017-04-13T04:17:45.035Z,12.40
2017-04-13T04:18:44.443Z,12.40
2017-04-13T04:19:43.375Z,12.40
2017-04-13T04:20:42.745Z,12.40
2017-04-13T04:21:41.738Z,12.30
2017-04-13T04:22:40.717Z,12.30
2017-04-13T04:23:39.847Z,12.30
2017-04-13T04:24:38.918Z,12.30
2017-04-13T04:25:37.862Z,12.30
2017-04-13T04:26:36.811Z,12.30
2017-04-13T04:27:35.820Z,12.20
2017-04-13T04:28:34.800Z,12.20
2017-04-13T04:29:33.799Z,12.20
2017-04-13T04:30:32.788Z,12.20
2017-04-13T04:31:31.820Z,12.20
2017-04-13T04:32:30.790Z,12.20
2017-04-13T04:33:29.754Z,12.20
2017-04-13T04:34:28.786Z,12.20
2017-04-13T04:35:27.828Z,12.20
2017-04-13T04:36:26.844Z,12.20
2017-04-13T04:37:26.274Z,12.20
2017-04-13T04:38:25.245Z,12.20
2017-04-13T04:39:24.182Z,12.10
2017-04-13T04:40:23.219Z,12.10
2017-04-13T04:41:22.188Z,12.10
2017-04-13T04:42:21.204Z,12.10
2017-04-13T04:43:20.227Z,12.20
2017-04-13T04:44:19.196Z,12.20
2017-04-13T04:45:18.202Z,12.20
2017-04-13T04:46:17.136Z,12.20
2017-04-13T04:47:16.111Z,12.20
2017-04-13T04:48:14.802Z,12.20
2017-04-13T04:49:13.766Z,12.20
2017-04-13T04:50:12.700Z,12.20
2017-04-13T04:51:11.713Z,12.20
2017-04-13T04:52:10.691Z,12.20
2017-04-13T04:53:09.683Z,12.30
2017-04-13T04:54:08.680Z,12.30
2017-04-13T04:55:07.694Z,12.20
2017-04-13T04:56:06.666Z,12.20
2017-04-13T04:57:05.619Z,12.20
2017-04-13T04:58:04.611Z,12.20
2017-04-13T04:59:03.158Z,12.20
2017-04-13T05:00:02.117Z,12.20
2017-04-13T05:01:01.327Z,12.10
2017-04-13T05:02:00.297Z,12.10
2017-04-13T05:02:59.303Z,12.10
2017-04-13T05:03:58.256Z,12.10
2017-04-13T05:04:57.283Z,12.10
2017-04-13T05:05:56.239Z,12.10
2017-04-13T05:06:55.168Z,12.10
2017-04-13T05:07:54.168Z,12.10
2017-04-13T05:08:53.168Z,12.00
2017-04-13T05:09:52.167Z,12.10
2017-04-13T05:10:51.134Z,12.00
2017-04-13T05:11:50.102Z,12.10
2017-04-13T05:12:49.115Z,12.10
2017-04-13T05:13:48.105Z,12.10
2017-04-13T05:14:47.051Z,12.10
2017-04-13T05:15:46.095Z,12.10
2017-04-13T05:16:45.054Z,12.10
2017-04-13T05:17:44.103Z,12.10
2017-04-13T05:18:43.051Z,12.00
2017-04-13T05:19:42.065Z,12.00
2017-04-13T05:20:40.759Z,12.00
2017-04-13T05:21:39.732Z,12.00
2017-04-13T05:22:38.690Z,12.10
2017-04-13T05:23:37.667Z,12.10
2017-04-13T05:24:36.708Z,12.10
2017-04-13T05:25:35.733Z,12.10
2017-04-13T05:26:34.720Z,12.10
2017-04-13T05:27:33.731Z,12.10
2017-04-13T05:28:32.735Z,12.10
2017-04-13T05:29:31.792Z,12.10
2017-04-13T05:30:30.835Z,12.10
2017-04-13T05:31:30.182Z,12.10
2017-04-13T05:32:29.242Z,12.10
2017-04-13T05:33:28.244Z,12.10
2017-04-13T05:34:27.187Z,12.10
2017-04-13T05:35:26.227Z,12.10
2017-04-13T05:36:25.192Z,12.10
2017-04-13T05:37:24.169Z,12.10
2017-04-13T05:38:23.163Z,12.20
2017-04-13T05:39:22.102Z,12.10
2017-04-13T05:40:21.087Z,12.10
2017-04-13T05:41:20.074Z,12.10
2017-04-13T05:42:19.121Z,12.10
2017-04-13T05:43:18.116Z,12.10
2017-04-13T05:44:17.434Z,12.10
2017-04-13T05:45:16.389Z,12.10
2017-04-13T05:46:15.391Z,12.10
2017-04-13T05:47:13.943Z,12.10
2017-04-13T05:48:12.963Z,12.00
2017-04-13T05:49:11.896Z,12.00
2017-04-13T05:50:10.503Z,12.00
2017-04-13T05:51:09.504Z,12.10
2017-04-13T05:52:08.424Z,12.10
2017-04-13T05:53:07.570Z,12.10
2017-04-13T05:54:06.511Z,12.10
2017-04-13T05:55:05.475Z,12.10
2017-04-13T05:56:04.479Z,12.00
2017-04-13T05:57:03.460Z,12.00
2017-04-13T05:58:02.501Z,12.10
2017-04-13T05:59:01.542Z,12.10
2017-04-13T06:00:00.548Z,12.10
2017-04-13T06:00:59.180Z,12.10
2017-04-13T06:01:58.170Z,12.20
2017-04-13T06:02:57.091Z,12.20
2017-04-13T06:03:56.119Z,12.20
2017-04-13T06:04:55.131Z,12.20
2017-04-13T06:05:54.151Z,12.20
2017-04-13T06:06:53.120Z,12.20
2017-04-13T06:07:52.132Z,12.20
2017-04-13T06:08:51.096Z,12.20
2017-04-13T06:09:50.071Z,12.30
2017-04-13T06:10:49.136Z,12.30
2017-04-13T06:11:48.109Z,12.40
2017-04-13T06:12:47.092Z,12.40
2017-04-13T06:13:46.056Z,12.50
2017-04-13T06:14:45.063Z,12.50
2017-04-13T06:15:44.061Z,12.50
2017-04-13T06:16:43.095Z,12.50
2017-04-13T06:17:42.107Z,12.40
2017-04-13T06:18:41.055Z,12.40
2017-04-13T06:19:39.631Z,12.40
2017-04-13T06:20:38.628Z,12.40
2017-04-13T06:21:37.583Z,12.40
2017-04-13T06:22:36.560Z,12.40
2017-04-13T06:23:35.580Z,12.40
2017-04-13T06:24:34.587Z,12.30
2017-04-13T06:25:33.599Z,12.30
2017-04-13T06:26:32.964Z,12.30
2017-04-13T06:27:31.907Z,12.30
2017-04-13T06:28:30.968Z,12.30
2017-04-13T06:29:29.960Z,12.40
2017-04-13T06:30:28.911Z,12.40
2017-04-13T06:31:27.932Z,12.50
2017-04-13T06:32:26.861Z,12.50
2017-04-13T06:33:25.851Z,12.60
2017-04-13T06:34:24.830Z,12.60
2017-04-13T06:35:23.390Z,12.60
2017-04-13T06:36:22.421Z,12.60
2017-04-13T06:37:21.405Z,12.60
2017-04-13T06:38:20.359Z,12.60
2017-04-13T06:39:19.306Z,12.60
2017-04-13T06:40:18.288Z,12.60
2017-04-13T06:41:17.311Z,12.60
2017-04-13T06:42:16.251Z,12.60
2017-04-13T06:43:15.181Z,12.60
2017-04-13T06:44:14.212Z,12.60
2017-04-13T06:45:13.228Z,12.60
2017-04-13T06:46:12.179Z,12.50
2017-04-13T06:47:11.208Z,12.60
2017-04-13T06:48:10.154Z,12.60
2017-04-13T06:49:09.084Z,12.60
2017-04-13T06:50:08.943Z,12.70
2017-04-13T06:51:07.899Z,12.70
2017-04-13T06:52:06.862Z,12.70
2017-04-13T06:53:05.891Z,12.70
2017-04-13T06:54:04.853Z,12.70
2017-04-13T06:55:03.920Z,12.70
2017-04-13T06:56:02.872Z,12.80
2017-04-13T06:57:01.916Z,12.80
2017-04-13T06:58:00.952Z,12.80
2017-04-13T06:58:59.939Z,12.80
2017-04-13T06:59:58.907Z,12.80
2017-04-13T07:00:57.883Z,12.80
2017-04-13T07:01:56.914Z,12.80
2017-04-13T07:02:57.231Z,12.80
2017-04-13T07:03:56.304Z,12.80
2017-04-13T07:04:55.363Z,12.80
2017-04-13T07:05:54.359Z,12.80
2017-04-13T07:06:53.353Z,12.80
2017-04-13T07:07:52.351Z,12.70
2017-04-13T07:08:51.355Z,12.80
2017-04-13T07:09:50.328Z,12.80
2017-04-13T07:10:49.743Z,12.90
2017-04-13T07:11:48.727Z,12.90
2017-04-13T07:12:47.706Z,12.90
2017-04-13T07:13:46.666Z,12.90
2017-04-13T07:14:45.624Z,13.00
2017-04-13T07:15:44.945Z,13.00
2017-04-13T07:16:44.124Z,13.00
2017-04-13T07:17:43.163Z,13.10
2017-04-13T07:18:42.133Z,13.10
2017-04-13T07:19:41.224Z,13.00
2017-04-13T07:20:40.134Z,13.00
2017-04-13T07:21:39.499Z,13.00
2017-04-13T07:22:38.500Z,12.90
2017-04-13T07:23:37.495Z,12.90
2017-04-13T07:24:36.769Z,13.00
2017-04-13T07:25:35.852Z,13.00
2017-04-13T07:26:34.831Z,13.00
2017-04-13T07:27:33.919Z,12.90
2017-04-13T07:28:32.869Z,12.90
2017-04-13T07:29:31.852Z,12.90
2017-04-13T07:30:30.862Z,12.90
2017-04-13T07:31:30.207Z,12.90
2017-04-13T07:32:29.232Z,12.90
2017-04-13T07:33:28.207Z,12.90
2017-04-13T07:34:27.206Z,13.00
2017-04-13T07:35:26.179Z,13.00
2017-04-13T07:36:25.132Z,13.10
2017-04-13T07:37:24.072Z,13.10
2017-04-13T07:38:23.055Z,13.10
2017-04-13T07:39:22.044Z,13.10
2017-04-13T07:40:21.111Z,13.20
2017-04-13T07:41:20.130Z,13.20
2017-04-13T07:42:19.195Z,13.30
2017-04-13T07:43:18.135Z,13.30
2017-04-13T07:44:17.059Z,13.30
2017-04-13T07:45:16.080Z,13.30
2017-04-13T07:46:15.067Z,13.30
2017-04-13T07:47:14.071Z,13.40
2017-04-13T07:48:13.019Z,13.40
2017-04-13T07:49:12.032Z,13.50
2017-04-13T07:50:10.983Z,13.60
2017-04-13T07:51:10.028Z,13.60
2017-04-13T07:52:09.035Z,13.60
2017-04-13T07:53:08.032Z,13.60
2017-04-13T07:54:06.995Z,13.50
2017-04-13T07:55:05.986Z,13.40
2017-04-13T07:56:04.959Z,13.40
2017-04-13T07:57:03.547Z,13.40
2017-04-13T07:58:02.606Z,13.40
2017-04-13T07:59:01.547Z,13.40
2017-04-13T08:00:00.564Z,13.40
2017-04-13T08:00:59.764Z,13.30
2017-04-13T08:01:58.775Z,13.20
2017-04-13T08:02:57.771Z,13.20
2017-04-13T08:03:56.735Z,13.10
2017-04-13T08:04:55.887Z,13.10
2017-04-13T08:05:54.879Z,13.10
2017-04-13T08:06:53.855Z,13.10
2017-04-13T08:07:52.959Z,13.20
2017-04-13T08:08:52.180Z,13.20
2017-04-13T08:09:51.154Z,13.30
2017-04-13T08:10:50.135Z,13.30
2017-04-13T08:11:49.066Z,13.40
2017-04-13T08:12:48.031Z,13.50
2017-04-13T08:13:47.300Z,13.60
2017-04-13T08:14:46.263Z,13.60
2017-04-13T08:15:45.279Z,13.60
2017-04-13T08:16:44.274Z,13.60
2017-04-13T08:17:43.244Z,13.70
2017-04-13T08:18:41.822Z,13.70
2017-04-13T08:19:40.475Z,13.70
2017-04-13T08:20:39.432Z,13.70
2017-04-13T08:21:38.407Z,13.70
2017-04-13T08:22:37.404Z,13.70
2017-04-13T08:23:36.367Z,13.70
2017-04-13T08:24:35.346Z,13.70
2017-04-13T08:25:34.334Z,13.60
2017-04-13T08:26:33.314Z,13.60
2017-04-13T08:27:32.275Z,13.50
2017-04-13T08:28:31.324Z,13.40
2017-04-13T08:29:30.859Z,13.30
2017-04-13T08:30:29.901Z,13.30
2017-04-13T08:31:28.935Z,13.30
2017-04-13T08:32:27.913Z,13.30
2017-04-13T08:33:27.705Z,13.30
2017-04-13T08:34:26.639Z,13.30
2017-04-13T08:35:25.601Z,13.30
2017-04-13T08:36:24.623Z,13.30
2017-04-13T08:37:23.595Z,13.40
2017-04-13T08:38:22.617Z,13.40
2017-04-13T08:39:21.326Z,13.40
2017-04-13T08:40:20.295Z,13.60
2017-04-13T08:41:19.263Z,13.70
2017-04-13T08:42:18.295Z,13.80
2017-04-13T08:43:17.279Z,13.80
2017-04-13T08:44:16.195Z,13.90
2017-04-13T08:45:15.243Z,13.90
2017-04-13T08:46:14.169Z,14.00
2017-04-13T08:47:13.153Z,14.00
2017-04-13T08:48:12.106Z,14.00
2017-04-13T08:49:11.103Z,14.10
2017-04-13T08:50:10.103Z,14.00
2017-04-13T08:51:09.140Z,14.00
2017-04-13T08:52:08.148Z,14.00
2017-04-13T08:53:07.126Z,14.00
2017-04-13T08:54:06.510Z,14.00
2017-04-13T08:55:05.455Z,14.00
2017-04-13T08:56:04.439Z,14.10
2017-04-13T08:57:03.438Z,14.10
2017-04-13T08:58:02.423Z,14.10
2017-04-13T08:59:01.428Z,14.10
2017-04-13T09:00:00.428Z,14.20
2017-04-13T09:00:59.789Z,14.10
2017-04-13T09:01:58.755Z,14.20
2017-04-13T09:02:57.756Z,14.30
2017-04-13T09:03:56.779Z,14.50
2017-04-13T09:04:55.764Z,14.60
2017-04-13T09:05:55.117Z,14.70
2017-04-13T09:06:53.730Z,14.70
2017-04-13T09:07:52.660Z,14.80
2017-04-13T09:08:51.736Z,14.90
2017-04-13T09:09:50.856Z,14.90
2017-04-13T09:10:49.835Z,14.80
2017-04-13T09:11:48.875Z,14.80
2017-04-13T09:12:47.892Z,14.80
2017-04-13T09:13:46.906Z,14.80
2017-04-13T09:14:45.903Z,14.80
2017-04-13T09:15:45.004Z,14.80
2017-04-13T09:16:44.007Z,14.70
2017-04-13T09:17:42.987Z,14.70
2017-04-13T09:18:41.928Z,14.50
2017-04-13T09:19:40.895Z,14.40
2017-04-13T09:20:39.911Z,14.40
2017-04-13T09:21:38.910Z,14.40
2017-04-13T09:22:37.876Z,14.30
2017-04-13T09:23:36.859Z,14.20
2017-04-13T09:24:35.816Z,14.20
2017-04-13T09:25:34.893Z,14.10
2017-04-13T09:26:33.895Z,14.10
2017-04-13T09:27:32.933Z,14.10
2017-04-13T09:28:32.071Z,14.10
2017-04-13T09:29:31.051Z,14.10
2017-04-13T09:30:30.020Z,14.10
2017-04-13T09:31:29.003Z,14.00
2017-04-13T09:32:27.984Z,14.00
2017-04-13T09:33:27.036Z,13.90
2017-04-13T09:34:25.626Z,13.90
2017-04-13T09:35:24.563Z,13.80
2017-04-13T09:36:23.567Z,13.70
2017-04-13T09:37:22.595Z,13.70
2017-04-13T09:38:21.575Z,13.70
2017-04-13T09:39:20.595Z,13.80
2017-04-13T09:40:19.607Z,13.80
2017-04-13T09:41:18.580Z,13.90
2017-04-13T09:42:17.536Z,14.00
2017-04-13T09:43:16.501Z,14.10
2017-04-13T09:44:15.527Z,14.30
2017-04-13T09:45:14.570Z,14.40
2017-04-13T09:46:13.552Z,14.50
2017-04-13T09:47:12.552Z,14.60
2017-04-13T09:48:11.482Z,14.80
2017-04-13T09:49:10.519Z,15.00
2017-04-13T09:50:09.830Z,15.10
2017-04-13T09:51:08.955Z,15.20
2017-04-13T09:52:07.919Z,15.40
2017-04-13T09:53:06.858Z,15.50
2017-04-13T09:54:06.224Z,15.60
2017-04-13T09:55:05.212Z,15.50
2017-04-13T09:56:04.307Z,15.50
2017-04-13T09:57:03.234Z,15.40
2017-04-13T09:58:02.298Z,15.30
2017-04-13T09:59:01.292Z,15.10
2017-04-13T10:00:00.270Z,15.00
2017-04-13T10:00:59.299Z,14.90
2017-04-13T10:01:58.246Z,14.80
2017-04-13T10:02:57.307Z,14.70
2017-04-13T10:03:56.289Z,14.60
2017-04-13T10:04:55.290Z,14.50
2017-04-13T10:05:54.307Z,14.40
2017-04-13T10:06:53.271Z,14.30
2017-04-13T10:07:52.235Z,14.20
2017-04-13T10:08:51.243Z,14.10
2017-04-13T10:09:50.226Z,14.10
2017-04-13T10:10:49.301Z,14.10
2017-04-13T10:11:48.262Z,14.10
2017-04-13T10:12:46.866Z,14.10
2017-04-13T10:13:46.086Z,14.00
2017-04-13T10:14:45.131Z,14.00
2017-04-13T10:15:44.131Z,13.90
2017-04-13T10:16:43.208Z,13.90
2017-04-13T10:17:42.288Z,14.00
2017-04-13T10:18:41.315Z,14.10
2017-04-13T10:19:40.335Z,14.20
2017-04-13T10:20:39.383Z,14.20
2017-04-13T10:21:38.016Z,14.20
2017-04-13T10:22:37.046Z,14.40
2017-04-13T10:23:36.027Z,14.50
2017-04-13T10:24:34.967Z,14.60
2017-04-13T10:25:33.600Z,14.60
2017-04-13T10:26:32.613Z,14.90
2017-04-13T10:27:31.715Z,15.00
2017-04-13T10:28:30.752Z,15.10
2017-04-13T10:29:29.747Z,15.20
2017-04-13T10:30:28.732Z,15.30
2017-04-13T10:31:27.699Z,15.40
2017-04-13T10:32:26.694Z,15.50
2017-04-13T10:33:25.686Z,15.60
2017-04-13T10:34:24.625Z,15.70
2017-04-13T10:35:23.789Z,15.70
2017-04-13T10:36:22.735Z,15.70
2017-04-13T10:37:21.750Z,15.70
2017-04-13T10:38:20.343Z,15.70
2017-04-13T10:39:19.300Z,15.70
2017-04-13T10:40:18.264Z,15.70
2017-04-13T10:41:17.204Z,15.70
2017-04-13T10:42:16.295Z,15.70
2017-04-13T10:43:15.233Z,15.70
2017-04-13T10:44:14.260Z,15.80
2017-04-13T10:45:12.928Z,15.80
2017-04-13T10:46:11.915Z,15.90
2017-04-13T10:47:10.907Z,15.90
2017-04-13T10:48:09.908Z,15.90
2017-04-13T10:49:08.907Z,15.90
2017-04-13T10:50:07.939Z,15.90
2017-04-13T10:51:06.972Z,15.90
2017-04-13T10:52:05.905Z,15.90
2017-04-13T10:53:04.900Z,15.80
2017-04-13T10:54:04.263Z,15.80
2017-04-13T10:55:03.292Z,15.80
2017-04-13T10:56:02.318Z,15.80
2017-04-13T10:57:01.699Z,15.90
2017-04-13T10:58:00.634Z,16.00
2017-04-13T10:58:59.640Z,16.00
2017-04-13T10:59:58.612Z,16.00
2017-04-13T11:00:57.592Z,16.10
2017-04-13T11:01:56.619Z,16.10
2017-04-13T11:02:55.607Z,16.00
2017-04-13T11:03:54.584Z,16.10
2017-04-13T11:04:53.579Z,16.10
2017-04-13T11:05:53.582Z,16.00
2017-04-13T11:06:52.171Z,16.00
2017-04-13T11:07:51.162Z,15.80
2017-04-13T11:08:50.159Z,15.80
2017-04-13T11:09:49.148Z,15.80
2017-04-13T11:10:48.116Z,15.70
2017-04-13T11:11:47.038Z,15.70
2017-04-13T11:12:46.079Z,15.60
2017-04-13T11:13:45.051Z,15.60
2017-04-13T11:14:44.056Z,15.60
2017-04-13T11:15:42.700Z,15.70
2017-04-13T11:16:42.025Z,15.80
2017-04-13T11:17:41.067Z,15.90
2017-04-13T11:18:40.052Z,16.00
2017-04-13T11:19:39.079Z,16.10
2017-04-13T11:20:38.068Z,16.20
2017-04-13T11:21:37.113Z,16.20
2017-04-13T11:22:36.476Z,16.20
2017-04-13T11:23:35.455Z,16.20
2017-04-13T11:24:34.479Z,16.30
2017-04-13T11:25:33.475Z,16.30
2017-04-13T11:26:32.498Z,16.20
2017-04-13T11:27:31.437Z,16.20
2017-04-13T11:28:30.388Z,16.20
2017-04-13T11:29:29.444Z,16.10
2017-04-13T11:30:28.376Z,16.10
2017-04-13T11:31:27.370Z,16.00
2017-04-13T11:32:26.411Z,15.90
2017-04-13T11:33:25.382Z,15.80
2017-04-13T11:34:24.384Z,15.80
2017-04-13T11:35:23.402Z,15.80
2017-04-13T11:36:22.004Z,15.80
2017-04-13T11:37:21.015Z,15.80
2017-04-13T11:38:19.967Z,15.90
2017-04-13T11:39:18.897Z,16.00
2017-04-13T11:40:17.863Z,16.20
2017-04-13T11:41:16.907Z,16.40
2017-04-13T11:42:15.864Z,16.40
2017-04-13T11:43:14.487Z,16.40
2017-04-13T11:44:13.474Z,16.60
2017-04-13T11:45:12.474Z,16.70
2017-04-13T11:46:11.401Z,16.70
2017-04-13T11:47:10.434Z,16.70
2017-04-13T11:48:09.362Z,16.60
2017-04-13T11:49:08.404Z,16.60
2017-04-13T11:50:07.444Z,16.60
2017-04-13T11:51:06.712Z,16.60
2017-04-13T11:52:05.668Z,16.50
2017-04-13T11:53:04.698Z,16.40
2017-04-13T11:54:03.307Z,16.40
2017-04-13T11:55:02.319Z,16.30
2017-04-13T11:56:01.324Z,16.20
2017-04-13T11:56:59.859Z,16.20
2017-04-13T11:57:58.884Z,16.00
2017-04-13T11:58:58.204Z,16.00
2017-04-13T11:59:57.195Z,15.90
2017-04-13T12:00:56.171Z,15.90
2017-04-13T12:01:55.515Z,15.90
2017-04-13T12:02:54.454Z,15.90
2017-04-13T12:03:53.486Z,15.90
2017-04-13T12:04:52.422Z,15.80
2017-04-13T12:05:51.445Z,15.80
2017-04-13T12:06:50.472Z,15.80
2017-04-13T12:07:49.553Z,15.70
2017-04-13T12:08:48.993Z,15.60
2017-04-13T12:09:48.043Z,15.60
2017-04-13T12:10:47.064Z,15.60
2017-04-13T12:11:46.051Z,15.50
2017-04-13T12:12:45.055Z,15.50
2017-04-13T12:13:43.995Z,15.50
2017-04-13T12:14:42.975Z,15.60
2017-04-13T12:15:42.384Z,15.60
2017-04-13T12:16:41.338Z,15.70
2017-04-13T12:17:40.398Z,15.80
2017-04-13T12:18:39.399Z,15.90
2017-04-13T12:19:38.355Z,16.00
2017-04-13T12:20:37.403Z,16.10
2017-04-13T12:21:36.367Z,16.30
2017-04-13T12:22:35.715Z,16.40
2017-04-13T12:23:34.663Z,16.40
2017-04-13T12:24:34.068Z,16.50
2017-04-13T12:25:33.036Z,16.60
2017-04-13T12:26:31.945Z,16.80
2017-04-13T12:27:30.956Z,16.90
2017-04-13T12:28:29.870Z,17.00
2017-04-13T12:29:28.874Z,16.80
2017-04-13T12:30:27.873Z,16.70
2017-04-13T12:31:26.872Z,16.50
2017-04-13T12:32:25.852Z,16.40
2017-04-13T12:33:24.773Z,16.40
2017-04-13T12:34:23.783Z,16.50
2017-04-13T12:35:22.774Z,16.40
2017-04-13T12:36:21.754Z,16.30
2017-04-13T12:37:20.867Z,16.30
2017-04-13T12:38:19.496Z,16.30
2017-04-13T12:39:18.460Z,16.30
2017-04-13T12:40:17.442Z,16.30